Time;durP1;ratioP1;P1;durP2;ratioP2;P2;SDS_P1;SDS_P2;PMS_P1;PMS_P2;Temp;Humidity;BMP_temperature;BMP_pressure;BME280_temperature;BME280_humidity;BME280_pressure;Samples;Min_cycle;Max_cycle;Signal;HPM_P1;HPM_P2
2021/12/10 00:00:05;;;;;;;;;0.00;0.00;;;;;;;;4950527;28;48019;-72
2021/12/10 00:02:34;;;;;;;;;2.00;1.00;;;;;;;;4950264;28;45451;-72
2021/12/10 00:05:00;;;;;;;;;0.00;0.00;;;;;;;;4954060;28;45262;-72
2021/12/10 00:07:26;;;;;;;;;0.00;0.00;;;;;;;;4954178;28;45571;-71
2021/12/10 00:09:53;;;;;;;;;0.00;0.00;;;;;;;;4953706;28;45519;-72
2021/12/10 00:12:21;;;;;;;;;1.00;0.00;;;;;;;;4954422;28;45700;-72
2021/12/10 00:14:47;;;;;;;;;1.75;0.00;;;;;;;;4951883;28;45384;-71
2021/12/10 00:17:12;;;;;;;;;3.00;1.00;;;;;;;;4953847;28;46627;-72
2021/12/10 00:19:48;;;;;;;;;1.50;1.00;;;;;;;;4953761;28;45772;-71
2021/12/10 00:22:16;;;;;;;;;0.00;0.00;;;;;;;;4953779;28;45409;-72
2021/12/10 00:24:43;;;;;;;;;2.00;1.00;;;;;;;;4954410;28;45449;-72
2021/12/10 00:27:10;;;;;;;;;0.50;0.00;;;;;;;;4952453;28;47505;-72
2021/12/10 00:29:37;;;;;;;;;0.00;0.00;;;;;;;;4955868;28;45904;-72
2021/12/10 00:32:06;;;;;;;;;1.00;1.00;;;;;;;;4956787;28;45563;-72
2021/12/10 00:34:40;;;;;;;;;2.00;0.00;;;;;;;;4956940;28;45580;-72
2021/12/10 00:37:09;;;;;;;;;1.00;0.50;;;;;;;;4956936;28;47597;-72
2021/12/10 00:39:37;;;;;;;;;0.00;0.00;;;;;;;;4957764;28;45476;-72
2021/12/10 00:42:05;;;;;;;;;0.50;0.50;;;;;;;;4957807;28;45866;-72
2021/12/10 00:44:30;;;;;;;;;0.00;0.00;;;;;;;;4952718;28;45409;-72
2021/12/10 00:46:55;;;;;;;;;0.00;0.00;;;;;;;;4955758;28;46368;-71
2021/12/10 00:49:21;;;;;;;;;0.50;0.00;;;;;;;;4954648;28;45594;-72
2021/12/10 00:51:46;;;;;;;;;0.00;0.00;;;;;;;;4963710;28;45365;-71
2021/12/10 00:54:12;;;;;;;;;0.00;0.00;;;;;;;;4981064;28;27235;-71
2021/12/10 00:56:38;;;;;;;;;0.00;0.00;;;;;;;;4976760;28;29216;-72
2021/12/10 00:59:04;;;;;;;;;0.00;0.00;;;;;;;;4990684;28;27714;-72
2021/12/10 01:01:30;;;;;;;;;0.50;0.50;;;;;;;;4987892;28;8829;-72
2021/12/10 01:04:19;;;;;;;;;0.00;0.00;;;;;;;;4990426;28;8917;-72
2021/12/10 01:06:46;;;;;;;;;0.00;0.00;;;;;;;;4984923;28;8858;-72
2021/12/10 01:09:17;;;;;;;;;0.00;0.00;;;;;;;;4994187;28;8821;-72
2021/12/10 01:11:48;;;;;;;;;0.00;0.00;;;;;;;;4992122;28;8845;-72
2021/12/10 01:14:21;;;;;;;;;0.00;0.00;;;;;;;;4991275;28;8807;-72
2021/12/10 01:25:40;;;;;;;;;0.00;0.00;;;;;;;;5020754;28;8809;-72
2021/12/10 01:28:07;;;;;;;;;0.00;0.00;;;;;;;;5016325;28;8821;-72
2021/12/10 01:30:33;;;;;;;;;0.00;0.00;;;;;;;;5026124;28;8799;-72
2021/12/10 01:33:01;;;;;;;;;0.25;0.00;;;;;;;;5026127;28;8872;-72
2021/12/10 01:35:33;;;;;;;;;0.00;0.00;;;;;;;;5015327;28;8933;-71
2021/12/10 01:37:59;;;;;;;;;0.00;0.00;;;;;;;;5007544;28;8831;-72
2021/12/10 01:40:26;;;;;;;;;0.00;0.00;;;;;;;;5014223;28;8817;-72
2021/12/10 01:42:54;;;;;;;;;0.00;0.00;;;;;;;;5011824;28;8919;-72
2021/12/10 01:45:22;;;;;;;;;0.75;0.00;;;;;;;;5012999;28;8817;-72
2021/12/10 01:47:51;;;;;;;;;0.00;0.00;;;;;;;;5016612;28;8913;-72
2021/12/10 01:50:17;;;;;;;;;1.00;1.00;;;;;;;;5013578;28;8827;-71
2021/12/10 01:52:42;;;;;;;;;0.00;0.00;;;;;;;;5016087;28;8841;-72
2021/12/10 01:55:07;;;;;;;;;0.33;0.00;;;;;;;;4988869;28;12388;-72
2021/12/10 01:57:34;;;;;;;;;0.00;0.00;;;;;;;;4998855;28;8819;-71
2021/12/10 02:00:00;;;;;;;;;0.00;0.00;;;;;;;;4990941;28;9604;-72
2021/12/10 02:02:28;;;;;;;;;0.00;0.00;;;;;;;;4990196;28;8822;-72
2021/12/10 02:04:53;;;;;;;;;1.00;0.00;;;;;;;;4986164;28;8818;-72
2021/12/10 02:07:20;;;;;;;;;0.00;0.00;;;;;;;;4987648;28;8857;-72
2021/12/10 02:09:46;;;;;;;;;0.00;0.00;;;;;;;;4986321;28;8849;-72
2021/12/10 02:12:12;;;;;;;;;0.00;0.00;;;;;;;;4988438;28;8919;-72
2021/12/10 02:14:38;;;;;;;;;0.25;0.00;;;;;;;;4993079;28;8823;-72
2021/12/10 02:17:04;;;;;;;;;0.00;0.00;;;;;;;;4990528;28;8918;-72
2021/12/10 02:19:29;;;;;;;;;0.00;0.00;;;;;;;;4986093;28;8861;-71
2021/12/10 02:21:55;;;;;;;;;0.00;0.00;;;;;;;;4988237;28;8811;-72
2021/12/10 02:24:20;;;;;;;;;0.00;0.00;;;;;;;;4989458;28;8838;-72
2021/12/10 02:26:48;;;;;;;;;0.00;0.00;;;;;;;;4990500;28;8830;-72
2021/12/10 02:29:14;;;;;;;;;1.00;0.00;;;;;;;;4990840;28;9563;-72
2021/12/10 02:31:40;;;;;;;;;0.00;0.00;;;;;;;;4986361;28;8857;-72
2021/12/10 02:34:06;;;;;;;;;0.50;0.00;;;;;;;;5002544;28;8825;-72
2021/12/10 02:36:32;;;;;;;;;0.00;0.00;;;;;;;;4990565;28;8827;-72
2021/12/10 02:38:57;;;;;;;;;0.00;0.00;;;;;;;;4987538;28;8811;-72
2021/12/10 02:41:25;;;;;;;;;0.00;0.00;;;;;;;;4986892;28;8810;-72
2021/12/10 02:43:52;;;;;;;;;0.00;0.00;;;;;;;;4986973;28;8823;-71
2021/12/10 02:46:17;;;;;;;;;0.00;0.00;;;;;;;;4987336;28;8856;-72
2021/12/10 02:48:42;;;;;;;;;0.00;0.00;;;;;;;;4989669;28;8890;-72
2021/12/10 02:51:09;;;;;;;;;0.00;0.00;;;;;;;;4986801;28;11477;-72
2021/12/10 02:53:40;;;;;;;;;0.00;0.00;;;;;;;;4985423;28;8845;-72
2021/12/10 02:56:06;;;;;;;;;0.00;0.00;;;;;;;;4989583;28;8858;-72
2021/12/10 02:58:32;;;;;;;;;0.25;0.00;;;;;;;;4990390;28;8823;-72
2021/12/10 03:01:03;;;;;;;;;0.75;0.75;;;;;;;;4990696;28;8928;-72
2021/12/10 03:03:28;;;;;;;;;0.00;0.00;;;;;;;;4990186;28;8838;-72
2021/12/10 03:05:54;;;;;;;;;0.25;0.00;;;;;;;;4988231;28;9589;-72
2021/12/10 03:08:19;;;;;;;;;0.00;0.00;;;;;;;;4985294;28;8821;-72
2021/12/10 03:10:45;;;;;;;;;0.00;0.00;;;;;;;;4990304;28;11542;-72
2021/12/10 03:13:11;;;;;;;;;0.00;0.00;;;;;;;;4986562;28;10231;-72
2021/12/10 03:15:36;;;;;;;;;0.00;0.00;;;;;;;;4990440;28;8833;-72
2021/12/10 03:18:02;;;;;;;;;0.00;0.00;;;;;;;;4991258;28;9574;-72
2021/12/10 03:20:29;;;;;;;;;0.00;0.00;;;;;;;;4989928;28;8807;-72
2021/12/10 03:22:55;;;;;;;;;1.75;0.25;;;;;;;;4987233;28;8806;-72
2021/12/10 03:25:20;;;;;;;;;1.00;1.00;;;;;;;;4986728;28;8852;-72
2021/12/10 03:27:46;;;;;;;;;0.00;0.00;;;;;;;;5004767;28;9182;-72
2021/12/10 03:30:13;;;;;;;;;0.00;0.00;;;;;;;;4991001;28;11435;-72
2021/12/10 03:32:39;;;;;;;;;2.00;0.00;;;;;;;;4988364;28;8814;-72
2021/12/10 03:35:09;;;;;;;;;1.00;0.00;;;;;;;;4985417;28;8866;-72
2021/12/10 03:37:34;;;;;;;;;0.50;0.50;;;;;;;;4988540;28;8827;-72
2021/12/10 03:39:59;;;;;;;;;0.00;0.00;;;;;;;;4986023;28;8825;-72
2021/12/10 03:42:24;;;;;;;;;1.67;1.00;;;;;;;;4989250;28;8913;-72
2021/12/10 03:44:50;;;;;;;;;2.00;0.67;;;;;;;;4984908;28;11547;-72
2021/12/10 03:47:15;;;;;;;;;1.50;1.25;;;;;;;;4985744;28;10513;-72
2021/12/10 03:49:40;;;;;;;;;1.75;1.50;;;;;;;;4989499;28;8827;-72
2021/12/10 03:52:07;;;;;;;;;2.00;1.00;;;;;;;;4989545;28;8818;-72
2021/12/10 03:54:32;;;;;;;;;1.00;1.00;;;;;;;;4987905;28;8834;-72
2021/12/10 03:56:58;;;;;;;;;2.75;1.00;;;;;;;;4986248;28;8819;-72
2021/12/10 03:59:24;;;;;;;;;2.00;1.00;;;;;;;;4985654;28;8841;-72
2021/12/10 04:01:52;;;;;;;;;1.00;1.00;;;;;;;;4985117;28;9693;-72
2021/12/10 04:04:19;;;;;;;;;2.00;2.00;;;;;;;;4986211;28;8817;-71
2021/12/10 04:06:44;;;;;;;;;0.00;0.00;;;;;;;;4992201;28;8933;-72
2021/12/10 04:09:10;;;;;;;;;2.25;1.00;;;;;;;;4989441;28;8814;-72
2021/12/10 04:11:38;;;;;;;;;2.25;2.25;;;;;;;;4991534;28;8841;-72
2021/12/10 04:14:05;;;;;;;;;1.00;1.00;;;;;;;;4988551;28;8825;-73
2021/12/10 04:16:31;;;;;;;;;1.50;0.25;;;;;;;;4988261;28;8819;-72
2021/12/10 04:18:57;;;;;;;;;0.00;0.00;;;;;;;;4989755;28;9563;-72
2021/12/10 04:21:23;;;;;;;;;1.00;1.00;;;;;;;;4989767;28;8856;-72
2021/12/10 04:23:48;;;;;;;;;1.25;1.00;;;;;;;;4989007;28;8877;-72
2021/12/10 04:26:16;;;;;;;;;1.75;1.00;;;;;;;;4993103;28;8829;-72
2021/12/10 04:28:41;;;;;;;;;1.75;0.00;;;;;;;;5002475;28;8808;-72
2021/12/10 04:31:07;;;;;;;;;0.00;0.00;;;;;;;;4995653;28;8875;-72
2021/12/10 04:33:32;;;;;;;;;3.75;1.75;;;;;;;;4993066;28;8928;-72
2021/12/10 04:35:59;;;;;;;;;1.00;1.00;;;;;;;;4988688;28;8798;-72
2021/12/10 04:38:26;;;;;;;;;1.50;1.00;;;;;;;;4988952;28;11598;-72
2021/12/10 04:40:52;;;;;;;;;2.25;1.25;;;;;;;;4987795;28;8808;-72
2021/12/10 04:43:18;;;;;;;;;2.25;1.00;;;;;;;;4988435;28;8911;-72
2021/12/10 04:45:44;;;;;;;;;2.00;0.50;;;;;;;;4991379;28;8933;-72
2021/12/10 04:48:09;;;;;;;;;0.75;0.75;;;;;;;;4992017;28;8937;-72
2021/12/10 04:50:35;;;;;;;;;2.00;1.00;;;;;;;;4988835;28;8957;-72
2021/12/10 04:53:00;;;;;;;;;2.75;1.50;;;;;;;;4987203;28;8893;-72
2021/12/10 04:55:25;;;;;;;;;4.33;2.00;;;;;;;;4989233;28;8833;-72
2021/12/10 04:57:51;;;;;;;;;2.00;1.33;;;;;;;;4990910;28;9271;-72
2021/12/10 05:00:21;;;;;;;;;3.25;1.25;;;;;;;;4992258;28;12287;-72
2021/12/10 05:02:46;;;;;;;;;4.25;1.75;;;;;;;;4990159;28;8857;-72
2021/12/10 05:05:12;;;;;;;;;3.00;1.25;;;;;;;;4992926;28;8822;-72
2021/12/10 05:07:38;;;;;;;;;3.00;1.00;;;;;;;;4987474;28;8807;-72
2021/12/10 05:10:07;;;;;;;;;5.25;1.75;;;;;;;;4988604;28;8829;-72
2021/12/10 05:12:32;;;;;;;;;3.50;3.00;;;;;;;;4991211;28;8822;-72
2021/12/10 05:15:00;;;;;;;;;5.00;1.00;;;;;;;;4991593;28;9643;-72
2021/12/10 05:17:28;;;;;;;;;9.25;2.00;;;;;;;;4987534;28;11534;-72
2021/12/10 05:19:53;;;;;;;;;1.50;1.00;;;;;;;;4989981;28;9434;-72
2021/12/10 05:22:19;;;;;;;;;2.00;1.00;;;;;;;;4993946;28;8808;-72
2021/12/10 05:24:44;;;;;;;;;5.50;1.25;;;;;;;;4990836;28;8878;-72
2021/12/10 05:27:10;;;;;;;;;8.33;4.33;;;;;;;;4987537;28;8835;-72
2021/12/10 05:29:35;;;;;;;;;6.50;2.75;;;;;;;;4983070;28;8931;-73
2021/12/10 05:32:02;;;;;;;;;7.50;1.75;;;;;;;;4983205;28;8865;-72
2021/12/10 05:34:27;;;;;;;;;5.50;2.50;;;;;;;;4991649;28;8885;-72
2021/12/10 05:36:53;;;;;;;;;6.00;3.00;;;;;;;;4989361;28;8849;-72
2021/12/10 05:39:23;;;;;;;;;5.50;2.00;;;;;;;;4985290;28;8931;-72
2021/12/10 05:41:49;;;;;;;;;4.00;1.50;;;;;;;;4987087;28;8819;-72
2021/12/10 05:44:14;;;;;;;;;3.00;3.00;;;;;;;;4987937;28;8812;-72
2021/12/10 05:46:39;;;;;;;;;5.00;2.00;;;;;;;;4991693;28;8917;-72
2021/12/10 05:49:05;;;;;;;;;3.00;1.50;;;;;;;;4992393;28;8880;-72
2021/12/10 05:51:30;;;;;;;;;2.25;1.00;;;;;;;;4999214;28;9535;-72
2021/12/10 05:53:55;;;;;;;;;2.67;1.67;;;;;;;;4989739;28;8831;-72
2021/12/10 05:56:21;;;;;;;;;2.67;2.00;;;;;;;;4987012;28;9500;-71
2021/12/10 05:58:46;;;;;;;;;0.75;0.00;;;;;;;;4991136;28;8946;-72
2021/12/10 06:01:12;;;;;;;;;2.00;1.00;;;;;;;;4990464;28;8845;-72
2021/12/10 06:03:40;;;;;;;;;1.25;1.00;;;;;;;;4990946;28;8810;-72
2021/12/10 06:06:05;;;;;;;;;2.00;0.50;;;;;;;;4992203;28;8965;-72
2021/12/10 06:08:31;;;;;;;;;1.00;1.00;;;;;;;;4990889;28;8934;-72
2021/12/10 06:10:57;;;;;;;;;1.75;1.75;;;;;;;;4988485;28;9042;-72
2021/12/10 06:13:22;;;;;;;;;2.25;1.25;;;;;;;;4990362;28;8847;-72
2021/12/10 06:15:47;;;;;;;;;0.75;0.75;;;;;;;;4989734;28;8847;-73
2021/12/10 06:18:13;;;;;;;;;1.00;1.00;;;;;;;;4991169;28;8857;-71
2021/12/10 06:20:40;;;;;;;;;1.75;1.00;;;;;;;;4990618;28;11597;-72
2021/12/10 06:23:05;;;;;;;;;2.00;2.00;;;;;;;;4989695;28;8930;-72
2021/12/10 06:25:31;;;;;;;;;2.00;1.00;;;;;;;;4986288;28;8928;-75
2021/12/10 06:27:56;;;;;;;;;1.00;1.00;;;;;;;;4987432;28;10956;-72
2021/12/10 06:30:23;;;;;;;;;1.00;1.00;;;;;;;;4988700;28;8810;-73
2021/12/10 06:32:50;;;;;;;;;4.50;3.50;;;;;;;;4990610;28;8807;-72
2021/12/10 06:35:16;;;;;;;;;2.00;0.75;;;;;;;;4986633;28;8803;-72
2021/12/10 06:37:43;;;;;;;;;2.75;1.25;;;;;;;;4987014;28;9582;-72
2021/12/10 06:40:09;;;;;;;;;1.00;1.00;;;;;;;;4990250;28;8811;-72
2021/12/10 06:42:35;;;;;;;;;2.00;1.00;;;;;;;;4975751;28;8883;-72
2021/12/10 06:45:01;;;;;;;;;3.00;1.50;;;;;;;;4990144;28;8912;-72
2021/12/10 06:47:26;;;;;;;;;1.00;1.00;;;;;;;;4985601;28;8826;-72
2021/12/10 06:49:51;;;;;;;;;1.25;1.00;;;;;;;;4987022;28;8822;-72
2021/12/10 06:52:17;;;;;;;;;2.25;2.00;;;;;;;;4987126;28;8940;-72
2021/12/10 06:54:43;;;;;;;;;1.00;1.00;;;;;;;;4992661;28;8830;-72
2021/12/10 06:57:08;;;;;;;;;1.00;1.00;;;;;;;;4986965;28;11457;-72
2021/12/10 06:59:33;;;;;;;;;1.25;1.00;;;;;;;;4989159;28;9556;-72
2021/12/10 07:01:59;;;;;;;;;3.67;2.00;;;;;;;;4991920;28;8832;-72
2021/12/10 07:04:24;;;;;;;;;5.00;5.00;;;;;;;;4988698;28;8871;-72
2021/12/10 07:06:49;;;;;;;;;14.00;11.00;;;;;;;;5003723;28;8992;-71
2021/12/10 07:09:19;;;;;;;;;7.00;5.75;;;;;;;;4987831;28;8992;-72
2021/12/10 07:11:45;;;;;;;;;14.25;12.75;;;;;;;;4990549;28;8822;-72
2021/12/10 07:14:10;;;;;;;;;34.00;27.50;;;;;;;;4991487;28;8820;-72
2021/12/10 07:16:35;;;;;;;;;101.67;89.00;;;;;;;;4995836;28;8841;-72
2021/12/10 07:19:03;;;;;;;;;23.67;20.33;;;;;;;;4986629;28;8829;-72
2021/12/10 07:21:29;;;;;;;;;4.50;3.00;;;;;;;;4988919;28;8827;-72
2021/12/10 07:23:54;;;;;;;;;6.50;6.50;;;;;;;;4990276;28;8904;-74
2021/12/10 07:26:20;;;;;;;;;6.00;6.00;;;;;;;;4980308;28;9039;-75
2021/12/10 07:28:45;;;;;;;;;5.33;2.67;;;;;;;;4989175;28;8834;-72
2021/12/10 07:31:11;;;;;;;;;7.00;3.00;;;;;;;;5016017;28;11566;-72
2021/12/10 07:33:36;;;;;;;;;5.75;2.75;;;;;;;;4990164;28;8783;-72
2021/12/10 07:36:02;;;;;;;;;5.50;4.00;;;;;;;;4990796;28;8842;-72
2021/12/10 07:38:28;;;;;;;;;2.00;2.00;;;;;;;;4991679;28;8803;-73
2021/12/10 07:40:53;;;;;;;;;6.00;5.50;;;;;;;;4993811;28;8841;-72
2021/12/10 07:43:19;;;;;;;;;3.00;3.00;;;;;;;;4993615;28;8834;-73
2021/12/10 07:45:48;;;;;;;;;2.75;1.50;;;;;;;;4993352;28;11573;-72
2021/12/10 07:48:17;;;;;;;;;2.00;2.00;;;;;;;;4994194;28;8795;-72
2021/12/10 07:50:49;;;;;;;;;1.00;1.00;;;;;;;;4994045;28;8916;-72
2021/12/10 07:53:17;;;;;;;;;0.50;0.50;;;;;;;;4992533;28;8819;-73
2021/12/10 07:55:42;;;;;;;;;1.50;1.00;;;;;;;;4996359;28;9668;-72
2021/12/10 07:58:08;;;;;;;;;2.33;2.33;;;;;;;;4993492;28;8846;-72
2021/12/10 08:00:35;;;;;;;;;3.00;3.00;;;;;;;;4993716;28;8847;-72
2021/12/10 08:03:00;;;;;;;;;6.00;2.25;;;;;;;;5005295;28;11502;-72
2021/12/10 08:05:25;;;;;;;;;3.25;1.00;;;;;;;;4992903;28;8857;-73
2021/12/10 08:07:52;;;;;;;;;1.50;1.50;;;;;;;;4993253;28;8827;-72
2021/12/10 08:10:17;;;;;;;;;9.25;6.75;;;;;;;;4993326;28;8811;-73
2021/12/10 08:12:43;;;;;;;;;10.00;7.00;;;;;;;;4993163;28;8862;-72
2021/12/10 08:15:08;;;;;;;;;4.33;2.67;;;;;;;;4994216;28;8849;-72
2021/12/10 08:17:34;;;;;;;;;5.50;5.25;;;;;;;;4993316;28;11542;-72
2021/12/10 08:20:01;;;;;;;;;3.00;3.00;;;;;;;;5008523;28;8834;-72
2021/12/10 08:22:26;;;;;;;;;9.75;7.75;;;;;;;;4992513;28;8806;-72
2021/12/10 08:24:51;;;;;;;;;105.67;88.33;;;;;;;;4992002;28;8869;-72
2021/12/10 08:27:16;;;;;;;;;23.33;20.00;;;;;;;;4992965;28;11742;-72
2021/12/10 08:29:44;;;;;;;;;14.00;11.50;;;;;;;;4993675;28;8899;-72
2021/12/10 08:32:12;;;;;;;;;16.75;15.75;;;;;;;;4998789;28;8854;-72
2021/12/10 08:34:37;;;;;;;;;138.50;111.25;;;;;;;;4994290;28;9592;-72
2021/12/10 08:37:03;;;;;;;;;6.67;6.00;;;;;;;;4990427;28;8842;-72
2021/12/10 08:39:28;;;;;;;;;10.50;9.75;;;;;;;;4992313;28;8839;-72
2021/12/10 08:41:56;;;;;;;;;26.25;22.50;;;;;;;;4993005;28;8912;-72
2021/12/10 08:44:22;;;;;;;;;6.25;3.50;;;;;;;;4992876;28;8799;-73
2021/12/10 08:46:47;;;;;;;;;9.25;7.25;;;;;;;;5010648;28;8865;-71
2021/12/10 08:49:13;;;;;;;;;11.33;11.33;;;;;;;;4999530;28;8857;-72
2021/12/10 08:51:42;;;;;;;;;18.25;11.75;;;;;;;;4992072;28;11690;-72
2021/12/10 08:54:08;;;;;;;;;5.00;5.00;;;;;;;;4992875;28;8815;-72
2021/12/10 08:56:35;;;;;;;;;10.00;5.50;;;;;;;;4991963;28;8835;-71
2021/12/10 08:59:00;;;;;;;;;2.25;1.50;;;;;;;;5007532;28;8826;-73
2021/12/10 09:01:29;;;;;;;;;79.67;57.67;;;;;;;;4993387;28;8895;-73
2021/12/10 09:03:55;;;;;;;;;5.00;4.00;;;;;;;;5003514;28;9669;-72
2021/12/10 09:06:21;;;;;;;;;7.00;4.00;;;;;;;;4992283;28;8827;-72
2021/12/10 09:08:47;;;;;;;;;2.75;2.25;;;;;;;;5001834;28;8796;-71
2021/12/10 09:11:13;;;;;;;;;2.00;1.50;;;;;;;;4994286;28;8901;-72
2021/12/10 09:13:38;;;;;;;;;4.50;1.50;;;;;;;;4992297;28;9628;-72
2021/12/10 09:16:06;;;;;;;;;7.67;7.00;;;;;;;;4992620;28;8863;-72
2021/12/10 09:18:32;;;;;;;;;7.00;4.00;;;;;;;;4992461;28;8795;-72
2021/12/10 09:20:58;;;;;;;;;2.00;1.00;;;;;;;;4992912;28;8810;-72
2021/12/10 09:23:26;;;;;;;;;28.25;25.75;;;;;;;;4992026;28;8917;-73
2021/12/10 09:25:52;;;;;;;;;2.00;2.00;;;;;;;;4992679;28;8831;-72
2021/12/10 09:28:17;;;;;;;;;1.75;1.00;;;;;;;;4991730;28;8889;-72
2021/12/10 09:30:46;;;;;;;;;4.25;2.00;;;;;;;;4989090;28;8835;-72
2021/12/10 09:33:11;;;;;;;;;2.00;2.00;;;;;;;;5010004;28;9687;-72
2021/12/10 09:35:37;;;;;;;;;6.00;4.33;;;;;;;;4992247;28;8815;-72
2021/12/10 09:38:04;;;;;;;;;4.75;2.75;;;;;;;;4991984;28;8803;-72
2021/12/10 09:40:33;;;;;;;;;3.25;2.00;;;;;;;;4991855;28;8791;-72
2021/12/10 09:42:58;;;;;;;;;2.75;1.25;;;;;;;;4991058;28;8809;-72
2021/12/10 09:45:26;;;;;;;;;54.67;41.33;;;;;;;;4991596;28;8853;-72
2021/12/10 09:47:52;;;;;;;;;6.00;3.00;;;;;;;;4992679;28;8903;-72
2021/12/10 09:50:18;;;;;;;;;3.00;1.50;;;;;;;;4991486;28;8819;-72
2021/12/10 09:52:43;;;;;;;;;3.75;2.00;;;;;;;;4992534;28;8819;-72
2021/12/10 09:55:11;;;;;;;;;5.00;2.67;;;;;;;;4991591;28;8842;-72
2021/12/10 09:57:36;;;;;;;;;7.75;1.75;;;;;;;;4976433;28;9026;-72
2021/12/10 10:00:06;;;;;;;;;5.75;2.25;;;;;;;;4991693;28;8849;-72
2021/12/10 10:02:32;;;;;;;;;22.25;16.50;;;;;;;;4989934;28;8813;-72
2021/12/10 10:04:57;;;;;;;;;14.25;14.25;;;;;;;;4991457;28;8814;-72
2021/12/10 10:07:26;;;;;;;;;8.75;3.75;;;;;;;;4996471;28;8869;-72
2021/12/10 10:09:52;;;;;;;;;2.50;2.00;;;;;;;;4990853;28;8805;-72
2021/12/10 10:12:23;;;;;;;;;1.50;1.00;;;;;;;;4991576;28;8799;-72
2021/12/10 10:14:48;;;;;;;;;2.75;2.75;;;;;;;;4990067;28;8803;-71
2021/12/10 10:17:15;;;;;;;;;4.50;2.00;;;;;;;;4989451;28;8847;-72
2021/12/10 10:19:41;;;;;;;;;3.00;1.00;;;;;;;;4986635;28;8806;-72
2021/12/10 10:22:08;;;;;;;;;4.00;2.50;;;;;;;;4989371;28;8850;-72
2021/12/10 10:24:33;;;;;;;;;3.25;3.00;;;;;;;;4990993;28;8826;-72
2021/12/10 10:27:02;;;;;;;;;6.75;2.75;;;;;;;;4989448;28;8822;-72
2021/12/10 10:29:29;;;;;;;;;3.50;1.00;;;;;;;;4971643;28;44747;-71
2021/12/10 10:31:56;;;;;;;;;2.50;2.50;;;;;;;;4974820;28;39585;-72
2021/12/10 10:34:23;;;;;;;;;3.25;3.00;;;;;;;;4951039;28;45831;-72
2021/12/10 10:36:48;;;;;;;;;5.50;3.50;;;;;;;;4992824;28;8916;-71
2021/12/10 10:39:15;;;;;;;;;2.00;2.00;;;;;;;;4986472;28;8798;-72
2021/12/10 10:41:43;;;;;;;;;4.00;2.50;;;;;;;;4989996;28;8823;-72
2021/12/10 10:44:08;;;;;;;;;48.50;38.25;;;;;;;;4990011;28;8822;-72
2021/12/10 10:46:34;;;;;;;;;2.50;2.00;;;;;;;;4986005;28;8854;-72
2021/12/10 10:49:00;;;;;;;;;2.00;2.00;;;;;;;;4987680;28;8817;-72
2021/12/10 10:51:37;;;;;;;;;4.00;2.00;;;;;;;;4989403;28;8823;-71
2021/12/10 10:54:04;;;;;;;;;3.75;2.75;;;;;;;;4975185;28;45244;-71
2021/12/10 10:56:33;;;;;;;;;6.00;4.75;;;;;;;;4954157;28;45352;-72
2021/12/10 10:59:01;;;;;;;;;5.50;4.00;;;;;;;;4955815;28;45574;-71
2021/12/10 11:01:37;;;;;;;;;3.00;2.25;;;;;;;;4956102;28;45422;-72
2021/12/10 11:04:05;;;;;;;;;6.25;1.50;;;;;;;;4991235;28;9613;-72
2021/12/10 11:06:32;;;;;;;;;25.00;18.00;;;;;;;;4990647;28;8815;-71
2021/12/10 11:09:06;;;;;;;;;7.75;7.25;;;;;;;;4991489;28;8783;-71
2021/12/10 11:11:35;;;;;;;;;7.00;2.00;;;;;;;;4990607;28;8811;-71
2021/12/10 11:14:09;;;;;;;;;2.75;2.00;;;;;;;;4990344;28;8819;-71
2021/12/10 11:16:35;;;;;;;;;3.75;2.00;;;;;;;;4990665;28;8798;-72
2021/12/10 11:19:07;;;;;;;;;5.50;2.00;;;;;;;;4991004;28;8810;-71
2021/12/10 11:21:51;;;;;;;;;3.00;0.50;;;;;;;;4990619;28;8810;-71
2021/12/10 11:24:37;;;;;;;;;3.50;2.00;;;;;;;;4988816;28;8889;-72
2021/12/10 11:27:08;;;;;;;;;7.50;5.75;;;;;;;;4991378;28;9598;-71
2021/12/10 11:29:48;;;;;;;;;8.50;6.75;;;;;;;;4990105;28;8803;-71
2021/12/10 11:32:28;;;;;;;;;6.00;4.00;;;;;;;;4990401;28;8826;-71
2021/12/10 11:34:56;;;;;;;;;3.00;2.25;;;;;;;;4990097;28;8827;-72
2021/12/10 11:37:39;;;;;;;;;3.00;2.00;;;;;;;;4991018;28;8885;-71
2021/12/10 11:40:08;;;;;;;;;2.00;2.00;;;;;;;;4990813;28;8815;-72
2021/12/10 11:42:42;;;;;;;;;4.00;2.50;;;;;;;;4991666;28;8801;-71
2021/12/10 11:45:31;;;;;;;;;14.00;9.75;;;;;;;;4987350;28;8798;-71
2021/12/10 11:48:05;;;;;;;;;4.50;4.50;;;;;;;;4990395;28;8831;-72
2021/12/10 11:50:30;;;;;;;;;7.50;7.00;;;;;;;;4989978;28;8818;-71
2021/12/10 11:53:01;;;;;;;;;5.25;5.00;;;;;;;;4989810;28;8866;-72
2021/12/10 11:55:27;;;;;;;;;15.75;11.75;;;;;;;;4989884;28;8850;-71
2021/12/10 11:57:52;;;;;;;;;12.00;8.00;;;;;;;;4975651;28;8838;-73
2021/12/10 12:00:20;;;;;;;;;12.67;9.00;;;;;;;;4984192;28;8826;-73
2021/12/10 12:02:47;;;;;;;;;12.50;8.75;;;;;;;;4987107;28;11561;-74
2021/12/10 12:05:14;;;;;;;;;21.50;18.75;;;;;;;;4982983;28;8839;-73
2021/12/10 12:07:41;;;;;;;;;31.00;29.75;;;;;;;;4983228;28;8846;-73
2021/12/10 12:10:21;;;;;;;;;18.25;14.00;;;;;;;;4981976;28;8820;-73
2021/12/10 12:12:51;;;;;;;;;6.00;5.00;;;;;;;;4992335;28;9626;-72
2021/12/10 12:15:20;;;;;;;;;6.75;4.50;;;;;;;;4985255;28;8791;-72
2021/12/10 12:17:47;;;;;;;;;10.00;8.50;;;;;;;;4985752;28;8834;-72
2021/12/10 12:20:22;;;;;;;;;4.00;4.00;;;;;;;;4986719;28;9590;-72
2021/12/10 12:25:39;;;;;;;;;15.75;12.75;;;;;;;;4991269;28;8811;-72
2021/12/10 12:28:07;;;;;;;;;6.00;3.00;;;;;;;;4989719;28;8845;-72
2021/12/10 12:30:32;;;;;;;;;6.75;5.75;;;;;;;;4990683;28;8818;-72
2021/12/10 12:32:58;;;;;;;;;4.50;2.25;;;;;;;;4990274;28;8845;-72
2021/12/10 12:35:29;;;;;;;;;2.00;2.00;;;;;;;;4989723;28;8913;-72
2021/12/10 12:38:08;;;;;;;;;7.25;4.00;;;;;;;;4989631;28;8802;-72
2021/12/10 12:40:33;;;;;;;;;8.25;6.50;;;;;;;;5007534;28;8884;-72
2021/12/10 12:43:04;;;;;;;;;6.00;4.00;;;;;;;;4989903;28;8858;-72
2021/12/10 12:45:30;;;;;;;;;6.00;4.50;;;;;;;;4994633;28;8905;-72
2021/12/10 12:47:56;;;;;;;;;8.50;7.00;;;;;;;;4990122;28;9070;-72
2021/12/10 12:50:31;;;;;;;;;20.50;15.75;;;;;;;;4989169;28;45375;-72
2021/12/10 12:53:15;;;;;;;;;2.25;2.25;;;;;;;;4958231;28;45542;-72
2021/12/10 12:55:40;;;;;;;;;5.00;3.75;;;;;;;;4953503;28;47270;-72
2021/12/10 12:58:22;;;;;;;;;5.25;4.00;;;;;;;;4953994;28;45515;-72
2021/12/10 13:00:53;;;;;;;;;2.00;1.00;;;;;;;;4951904;28;45505;-72
2021/12/10 13:03:39;;;;;;;;;1.00;1.00;;;;;;;;4954800;28;45439;-72
2021/12/10 13:06:04;;;;;;;;;3.50;1.00;;;;;;;;4951445;28;45460;-72
2021/12/10 13:08:34;;;;;;;;;11.50;11.50;;;;;;;;4950256;28;45476;-72
2021/12/10 13:11:19;;;;;;;;;5.25;4.00;;;;;;;;4950011;28;45528;-72
2021/12/10 13:13:51;;;;;;;;;1.50;0.25;;;;;;;;4948885;28;45539;-72
2021/12/10 13:16:28;;;;;;;;;11.75;9.00;;;;;;;;4957057;28;46259;-72
2021/12/10 13:18:54;;;;;;;;;4.75;3.00;;;;;;;;4956764;28;45183;-71
2021/12/10 13:21:19;;;;;;;;;10.75;10.75;;;;;;;;4956276;28;45369;-72
2021/12/10 13:23:44;;;;;;;;;2.00;2.00;;;;;;;;4954514;28;45504;-72
2021/12/10 13:26:11;;;;;;;;;7.00;4.00;;;;;;;;4963405;28;46255;-72
2021/12/10 13:28:36;;;;;;;;;7.25;4.00;;;;;;;;4954365;28;45790;-72
2021/12/10 13:31:04;;;;;;;;;2.25;2.25;;;;;;;;4947259;28;45374;-73
2021/12/10 13:33:31;;;;;;;;;7.50;4.50;;;;;;;;4958933;28;45318;-71
2021/12/10 13:35:58;;;;;;;;;5.25;5.25;;;;;;;;4953056;28;46738;-71
2021/12/10 13:38:25;;;;;;;;;18.00;17.00;;;;;;;;4968823;28;45424;-71
2021/12/10 13:40:51;;;;;;;;;3.25;2.25;;;;;;;;4953862;28;45421;-71
2021/12/10 13:43:18;;;;;;;;;4.75;3.00;;;;;;;;4953880;28;45800;-72
2021/12/10 13:45:46;;;;;;;;;2.00;2.00;;;;;;;;4942612;28;45418;-71
2021/12/10 13:48:14;;;;;;;;;7.00;2.00;;;;;;;;4954358;28;45247;-72
2021/12/10 13:50:59;;;;;;;;;61.25;47.25;;;;;;;;4954138;28;45451;-71
2021/12/10 13:53:25;;;;;;;;;21.75;15.75;;;;;;;;4954002;28;45231;-72
2021/12/10 13:55:59;;;;;;;;;44.00;37.25;;;;;;;;4962008;28;45309;-72
2021/12/10 13:58:33;;;;;;;;;30.50;29.75;;;;;;;;4956477;28;45518;-72
2021/12/10 14:01:02;;;;;;;;;8.00;7.00;;;;;;;;4955882;28;45484;-71
2021/12/10 14:03:46;;;;;;;;;19.50;16.75;;;;;;;;4956877;28;45441;-70
2021/12/10 14:06:14;;;;;;;;;25.75;20.00;;;;;;;;4953486;28;46578;-70
2021/12/10 14:08:39;;;;;;;;;20.00;15.25;;;;;;;;4956746;28;46766;-71
2021/12/10 14:11:51;;;;;;;;;9.00;7.75;;;;;;;;4956380;28;45487;-71
2021/12/10 14:14:16;;;;;;;;;12.00;5.75;;;;;;;;4956205;28;45850;-71
2021/12/10 14:16:49;;;;;;;;;16.33;13.00;;;;;;;;4956131;28;45661;-72
2021/12/10 14:19:32;;;;;;;;;7.50;6.50;;;;;;;;4956417;28;45396;-73
2021/12/10 14:21:58;;;;;;;;;6.50;6.00;;;;;;;;4956537;28;45343;-72
2021/12/10 14:24:30;;;;;;;;;16.00;13.00;;;;;;;;4956339;28;45324;-72
2021/12/10 14:27:09;;;;;;;;;6.50;3.00;;;;;;;;4956594;28;46294;-72
2021/12/10 14:29:35;;;;;;;;;3.00;3.00;;;;;;;;4955910;28;45764;-72
2021/12/10 14:32:00;;;;;;;;;14.50;9.50;;;;;;;;4955903;28;45507;-72
2021/12/10 14:34:25;;;;;;;;;8.33;5.33;;;;;;;;4956178;28;45510;-73
2021/12/10 14:37:02;;;;;;;;;11.50;8.75;;;;;;;;4952971;28;45509;-73
2021/12/10 14:39:28;;;;;;;;;7.50;4.25;;;;;;;;4955991;28;45459;-72
2021/12/10 14:41:55;;;;;;;;;6.00;3.00;;;;;;;;4954782;28;45434;-72
2021/12/10 14:44:32;;;;;;;;;2.00;2.00;;;;;;;;4956302;28;45456;-72
2021/12/10 14:46:59;;;;;;;;;2.25;2.00;;;;;;;;4954935;28;45480;-72
2021/12/10 14:49:30;;;;;;;;;1.50;1.00;;;;;;;;4954553;28;45385;-72
2021/12/10 14:52:01;;;;;;;;;6.25;2.75;;;;;;;;4970082;28;45305;-72
2021/12/10 14:54:27;;;;;;;;;2.00;0.25;;;;;;;;4956683;28;45426;-72
2021/12/10 14:56:55;;;;;;;;;1.75;0.25;;;;;;;;4955447;28;46219;-73
2021/12/10 14:59:23;;;;;;;;;2.50;1.00;;;;;;;;4955689;28;45931;-72
2021/12/10 15:02:03;;;;;;;;;1.50;0.50;;;;;;;;4955659;28;45432;-73